Balmedie, United Kingdom
Current Conditions -  °F | °C
As of 10:20 AM on Monday 22 Dec 2014 (Local Time) from EGPD Reporting Station
Few Clouds Few Clouds  
Wind Chill:   Ceiling: Unl
Heat Index:   Visibility: 6mi
Dew Point:   Wind: 5mph
Humidity: 66%   Direction: 230°SW
Pressure: 29.47"   Gusts: NA
Location:  57.25°N, 2.06°W
Report Text: EGPD 221020Z 23004KT 160V310 9999 FEW042 07/01 Q0998 NOSIG
Loading
Personal Weather Stations






























Interactive Weather Map New forecast layout! Learn more

10-Day Weather Forecast

Advertisements
Track Severe Weather on mobile